MOL Celebration — C6WW7 — position and weather

sailwx.info

Track history (hours):
 
Tides and Currents Weather Stations Pressure Air Temp Water Temp Dewpoint Dewpoint Depression Visibility Wind Speed Wind Dir Waves Ship Positions

MOL Celebration

Last reported at 2016-Feb-08 10:27 UTC. Time now 2016-Feb-08 12:32 UTC.
Position N 34°27' W 121°04'.

Length 316 m; draft 13.1 m.

Type: Ship (hazmat cat D). MMSI: 309901000.

Date/timePositionNaut miles runAvg speedWind from/ knotsBaromVisibWave heightAir tempDewpointWater temp
2016-Feb-08 10:27N 34°27' W 121°04'1715.3
2016-Feb-08 09:21N 34°30' W 121°24'1315.7
2016-Feb-08 08:33N 34°32' W 121°39'1715.7
2016-Feb-08 07:27N 34°36' W 121°60'1517.3
2016-Feb-08 06:33N 34°39' W 122°18'1716.7
2016-Feb-08 05:31N 34°43' W 122°38'9014.8
2016-Feb-07 23:26N 35°01' W 124°26'1516.3
2016-Feb-07 22:29N 35°04' W 124°44'1515.8
2016-Feb-07 21:31N 35°07' W 125°02'  
Track history (hours):
 
Tides and Currents Weather Stations Pressure Air Temp Water Temp Dewpoint Dewpoint Depression Visibility Wind Speed Wind Dir Waves Ship Positions

MOL Celebration

Last reported at 2016-Feb-08 10:27 UTC. Time now 2016-Feb-08 12:32 UTC.
Position N 34°27' W 121°04'.

Length 316 m; draft 13.1 m.

Type: Ship (hazmat cat D). MMSI: 309901000.

Date/timePositionNaut miles runAvg speedWind from/ knotsBaromVisibWave heightAir tempDewpointWater temp
2016-Feb-08 10:27N 34°27' W 121°04'1715.3
2016-Feb-08 09:21N 34°30' W 121°24'1315.7
2016-Feb-08 08:33N 34°32' W 121°39'1715.7
2016-Feb-08 07:27N 34°36' W 121°60'1517.3
2016-Feb-08 06:33N 34°39' W 122°18'1716.7
2016-Feb-08 05:31N 34°43' W 122°38'9014.8
2016-Feb-07 23:26N 35°01' W 124°26'1516.3
2016-Feb-07 22:29N 35°04' W 124°44'1515.8
2016-Feb-07 21:31N 35°07' W 125°02'  

Dump ship's entire track history